Flight Track Log - Related Links

Times and Time Zones

All times are in EST time to prevent confusion due to time zone crossing. See the UAL4588 flight status page for this flight to view local times or setup timezone preferences in your user account.

Time Position Orientation Groundspeed Altitude Reporting Facility
EST Latitude Longitude Course Direction KTS MPH feet Rate Location/Type
Tue 09:56:17 AM 29.9939 -95.2600 68° East 237 273 2,100  Level Houston Center
Tue 09:57:18 AM 30.0706 -95.2725 352° North 295 339 4,700 2,585 Climbing Houston Center
Tue 09:57:22 AM 30.0769 -95.2725 360° North 287 330 4,900 2,852 Climbing Houston Center
Tue 09:58:19 AM 30.1558 -95.2861 352° North 310 357 7,600 2,710 Climbing Houston Center
Tue 09:58:24 AM 30.1608 -95.2867 355° North 302 348 7,700 3,000 Climbing Houston Center
Tue 09:59:00 AM 30.3755 -95.5642 334° Northwest  Level FlightAware Approximate
Tue 09:59:25 AM 30.2492 -95.3028 351° North 317 365 10,900  Level Houston Center
Tue 10:00:00 AM 30.4748 -95.6193 334° Northwest  Level FlightAware Approximate
Tue 10:00:27 AM 30.3281 -95.3539 331° Northwest 342 394 11,800  Level Houston Center
Tue 10:01:28 AM 30.3878 -95.4406 309° West 346 398 13,700 1,902 Climbing Houston Center
Tue 10:02:30 AM 30.4514 -95.5325 309° West 359 413 15,700 1,854 Climbing Houston Center
Tue 10:03:31 AM 30.5153 -95.6261 308° West 368 423 17,500 1,694 Climbing Houston Center
Tue 10:04:34 AM 30.6097 -95.6936 328° Northwest 407 468 19,200 2,439 Climbing Houston Center
Tue 10:05:34 AM 30.7333 -95.7583 336° Northwest 400 460 22,500 2,607 Climbing Houston Center
Tue 10:06:36 AM 30.8322 -95.8100 336° Northwest 389 448 24,500 1,984 Climbing Houston Center
Tue 10:07:38 AM 30.9303 -95.8631 335° Northwest 387 445 26,600 2,049 Climbing Houston Center
Tue 10:08:39 AM 31.0261 -95.9144 335° Northwest 381 438 28,700 1,902 Climbing Houston Center
Tue 10:09:41 AM 31.1186 -95.9647 335° Northwest 370 426 30,500 1,659 Climbing Houston Center
Tue 10:10:42 AM 31.2197 -96.0053 341° North 381 438 32,100 1,415 Climbing Houston Center
Tue 10:11:44 AM 31.3219 -96.0453 342° North 385 443 33,400 1,258 Climbing Houston Center
Tue 10:12:46 AM 31.4378 -96.0892 342° North 390 449 34,700 1,220 Climbing Houston Center
Tue 10:13:47 AM 31.5419 -96.1306 341° North 392 451 35,900 634 Climbing Houston Center
Tue 10:14:49 AM 31.6475 -96.1719 342° North 396 456 36,000 54 Climbing Houston Center
Tue 10:15:39 AM 31.7442 -96.2086 342° North 425 489 36,000  Level Fort Worth Center
Tue 10:16:41 AM 31.8761 -96.2600 342° North 456 525 36,000  Level Fort Worth Center
Tue 10:17:42 AM 32.0017 -96.3103 341° North 473 544 36,000  Level Fort Worth Center
Tue 10:18:44 AM 32.1297 -96.3592 342° North 482 555 36,000  Level Fort Worth Center
Tue 10:19:46 AM 32.2553 -96.4081 342° North 476 548 36,000  Level Fort Worth Center
Tue 10:20:48 AM 32.3814 -96.4553 342° North 476 548 36,000  Level Fort Worth Center
Tue 10:21:49 AM 32.5075 -96.5039 342° North 477 549 36,000  Level Fort Worth Center
Tue 10:22:51 AM 32.6603 -96.5622 342° North 482 555 36,000  Level Fort Worth Center
Tue 10:23:53 AM 32.7867 -96.6106 342° North 480 552 36,000  Level Fort Worth Center
Tue 10:24:54 AM 32.9075 -96.6642 340° North 470 541 36,000  Level Fort Worth Center
Tue 10:25:56 AM 32.9850 -96.7644 313° West 416 479 36,000  Level Fort Worth Center
Tue 10:26:58 AM 33.0506 -96.8714 306° West 405 466 36,000  Level Fort Worth Center
Tue 10:28:00 AM 33.1286 -97.0025 305° West 408 470 36,000  Level Fort Worth Center
Tue 10:29:01 AM 33.1931 -97.1119 305° West 410 472 36,000  Level Fort Worth Center
Tue 10:30:03 AM 33.2578 -97.2214 305° West 409 471 36,000  Level Fort Worth Center
Tue 10:31:05 AM 33.3225 -97.3322 305° West 409 471 36,000  Level Fort Worth Center
Tue 10:32:06 AM 33.3867 -97.4431 305° West 409 471 36,000  Level Fort Worth Center
Tue 10:33:08 AM 33.4519 -97.5547 305° West 411 473 36,000  Level Fort Worth Center
Tue 10:34:10 AM 33.5308 -97.6892 305° West 412 474 36,000  Level Fort Worth Center
Tue 10:35:11 AM 33.5956 -97.8017 305° West 411 473 36,000  Level Fort Worth Center
Tue 10:36:13 AM 33.6619 -97.9147 305° West 414 476 36,000  Level Fort Worth Center
Tue 10:37:15 AM 33.7272 -98.0289 305° West 416 479 36,000  Level Fort Worth Center
Tue 10:38:17 AM 33.7931 -98.1431 305° West 415 478 36,000  Level Fort Worth Center
Tue 10:39:18 AM 33.8600 -98.2597 305° West 424 488 36,000  Level Fort Worth Center
Tue 10:40:20 AM 33.9267 -98.3750 305° West 422 486 36,000  Level Fort Worth Center
Tue 10:41:22 AM 34.0050 -98.5147 304° West 420 483 36,000  Level Fort Worth Center
Tue 10:42:23 AM 34.0703 -98.6275 305° West 412 474 36,000  Level Fort Worth Center
Tue 10:43:25 AM 34.1347 -98.7408 305° West 420 483 36,000  Level Fort Worth Center
Tue 10:44:27 AM 34.1997 -98.8581 304° West 420 483 36,000  Level Fort Worth Center
Tue 10:45:28 AM 34.2667 -98.9747 305° West 421 484 36,000  Level Fort Worth Center
Tue 10:46:30 AM 34.3319 -99.0925 304° West 422 486 36,000  Level Fort Worth Center
Tue 10:47:32 AM 34.3975 -99.2097 304° West 420 483 36,000  Level Fort Worth Center
Tue 10:48:34 AM 34.4772 -99.3525 304° West 423 487 36,000  Level Fort Worth Center
Tue 10:49:35 AM 34.5417 -99.4689 304° West 418 481 36,000  Level Fort Worth Center
Tue 10:50:37 AM 34.6069 -99.5842 305° West 413 475 36,000  Level Fort Worth Center
Tue 10:51:39 AM 34.6711 -99.7008 304° West 414 476 36,000  Level Fort Worth Center
Tue 10:52:41 AM 34.7350 -99.8178 304° West 415 478 36,000  Level Fort Worth Center
Tue 10:53:12 AM 34.7742 -99.8892 304° West 415 478 36,000  Level Albuquerque Center
Tue 10:54:13 AM 34.8369 -100.0044 304° West 413 475 36,000  Level Albuquerque Center
Tue 10:55:15 AM 34.9014 -100.1222 304° West 415 478 36,000  Level Albuquerque Center
Tue 10:56:17 AM 34.9669 -100.2411 304° West 419 482 36,000  Level Albuquerque Center
Tue 10:57:19 AM 35.0308 -100.3619 303° West 421 484 36,000  Level Albuquerque Center
Tue 10:58:21 AM 35.0950 -100.4783 304° West 425 489 36,000  Level Albuquerque Center
Tue 10:59:23 AM 35.1722 -100.6239 303° West 427 491 36,000  Level Albuquerque Center
Tue 11:00:24 AM 35.2375 -100.7453 303° West 429 494 36,000  Level Albuquerque Center
Tue 11:01:26 AM 35.3022 -100.8672 303° West 429 494 36,000  Level Albuquerque Center
Tue 11:02:28 AM 35.3669 -100.9900 303° West 430 495 36,000  Level Albuquerque Center
Tue 11:03:30 AM 35.4314 -101.1111 303° West 429 494 36,000  Level Albuquerque Center
Tue 11:04:31 AM 35.5078 -101.2575 303° West 429 494 36,000  Level Albuquerque Center
Tue 11:05:33 AM 35.5725 -101.3794 303° West 430 495 36,000  Level Albuquerque Center
Tue 11:06:35 AM 35.6361 -101.5019 303° West 430 495 36,000  Level Albuquerque Center
Tue 11:07:37 AM 35.7006 -101.6256 303° West 432 497 36,000  Level Albuquerque Center
Tue 11:08:39 AM 35.7653 -101.7503 303° West 436 502 36,000  Level Albuquerque Center
Tue 11:09:41 AM 35.8292 -101.8714 303° West 428 493 36,000  Level Albuquerque Center
Tue 11:10:43 AM 35.9044 -102.0222 302° West 433 498 36,000  Level Albuquerque Center
Tue 11:11:44 AM 35.9672 -102.1422 303° West 422 486 36,000  Level Albuquerque Center
Tue 11:12:46 AM 36.0306 -102.2636 303° West 421 484 36,000  Level Albuquerque Center
Tue 11:13:48 AM 36.0906 -102.3847 302° West 417 480 36,000  Level Albuquerque Center
Tue 11:14:50 AM 36.1514 -102.5047 302° West 415 478 36,000  Level Albuquerque Center
Tue 11:15:52 AM 36.2128 -102.6242 303° West 413 475 36,000  Level Albuquerque Center
Tue 11:16:54 AM 36.2861 -102.7689 302° West 414 476 36,000  Level Albuquerque Center
Tue 11:17:56 AM 36.3456 -102.8881 302° West 412 474 36,000  Level Albuquerque Center
Tue 11:18:58 AM 36.4078 -103.0111 302° West 416 479 36,000  Level Albuquerque Center
Tue 11:20:00 AM 36.4692 -103.1339 302° West 416 479 36,000  Level Albuquerque Center
Tue 11:21:01 AM 36.5289 -103.2556 301° West 411 473 36,000  Level Albuquerque Center
Tue 11:22:03 AM 36.5897 -103.3769 302° West 411 473 36,000  Level Albuquerque Center
Tue 11:23:05 AM 36.6594 -103.5186 302° West 409 471 36,000  Level Albuquerque Center
Tue 11:24:07 AM 36.7147 -103.6297 302° West 410 472 36,000  Level Albuquerque Center
Tue 11:25:09 AM 36.7806 -103.7656 301° West 409 471 36,000  Level Albuquerque Center
Tue 11:26:11 AM 36.8386 -103.8819 302° West 406 467 36,000  Level Albuquerque Center
Tue 11:27:13 AM 36.9042 -104.0158 302° West 407 468 36,000  Level Albuquerque Center
Tue 11:28:15 AM 36.9600 -104.1314 301° West 405 466 36,000  Level Albuquerque Center
Tue 11:29:16 AM 37.0164 -104.2486 301° West 407 468 36,000  Level Albuquerque Center
Tue 11:30:18 AM 37.0831 -104.3850 302° West 408 470 36,000  Level Albuquerque Center
Tue 11:31:20 AM 37.1392 -104.5033 301° West 410 472 36,000  Level Albuquerque Center
Tue 11:32:22 AM 37.2050 -104.6419 301° West 412 474 36,000  Level Albuquerque Center
Tue 11:33:24 AM 37.2606 -104.7583 301° West 408 470 36,000  Level Albuquerque Center
Tue 11:35:07 AM 37.3442 -104.9367 301° West 407 468 36,000  Level Denver Center
Tue 11:36:09 AM 37.4192 -105.0964 301° West 413 475 36,000  Level Denver Center
Tue 11:37:11 AM 37.4850 -105.2372 301° West 410 472 36,000  Level Denver Center
Tue 11:38:13 AM 37.5408 -105.3544 301° West 409 471 36,000  Level Denver Center
Tue 11:39:15 AM 37.6036 -105.4889 301° West 406 467 36,000  Level Denver Center
Tue 11:40:17 AM 37.6583 -105.6083 300° West 408 470 36,000  Level Denver Center
Tue 11:41:20 AM 37.7217 -105.7464 300° West 406 467 36,000  Level Denver Center
Tue 11:42:22 AM 37.7772 -105.8647 301° West 407 468 36,000  Level Denver Center
Tue 11:43:24 AM 37.8322 -105.9839 300° West 409 471 36,000  Level Denver Center
Tue 11:44:26 AM 37.8950 -106.1231 300° West 407 468 36,000  Level Denver Center
Tue 11:45:28 AM 37.9492 -106.2425 300° West 408 470 36,000  Level Denver Center
Tue 11:46:30 AM 38.0125 -106.3811 300° West 407 468 36,000 -290 Level Denver Center
Tue 11:47:32 AM 38.0722 -106.5158 299° West 405 466 35,400 -1,059 Descending Denver Center
Tue 11:48:46 AM 38.1214 -106.6292 299° West 388 447 33,600 -2,029 Descending Denver Center
Tue 11:49:48 AM 38.1850 -106.7686 300° West 359 413 30,800 -2,419 Descending Denver Center
Tue 11:50:50 AM 38.2278 -106.8658 299° West 347 399 28,600 -2,177 Descending Denver Center
Tue 11:51:52 AM 38.2744 -106.9686 300° West 337 388 26,300 -2,064 Descending Denver Center
Tue 11:52:55 AM 38.3189 -107.0697 299° West 326 375 24,300 -1,968 Descending Denver Center
Tue 11:53:57 AM 38.3700 -107.1869 299° West 309 356 22,200 -1,500 Descending Denver Center
Tue 11:54:59 AM 38.4092 -107.2789 299° West 307 353 21,200 -1,016 Descending Denver Center
Tue 11:56:01 AM 38.4597 -107.3914 300° West 326 375 20,100 -1,016 Descending Denver Center
Tue 11:57:03 AM 38.5022 -107.4900 299° West 331 381 19,100 -1,016 Descending Denver Center
Tue 11:58:05 AM 38.5453 -107.5892 299° West 332 382 18,000 -1,103 Descending Denver Center
Tue 11:59:19 AM 38.6011 -107.7150 300° West 325 374 16,600 -1,103 Descending Denver Center
Tue 12:00:21 PM 38.6467 -107.8208 299° West 305 351 15,500 -823 Descending Denver Center
Tue 12:01:23 PM 38.6803 -107.9006 298° West 296 341 14,900 -290 Descending Denver Center
Tue 12:02:25 PM 38.7267 -108.0083 299° West 290 334 14,900 -192 Level Denver Center
Tue 12:03:28 PM 38.7639 -108.0975 298° West 285 328 14,500 -720 Descending Denver Center
Tue 12:04:30 PM 38.7986 -108.1758 300° West 257 296 13,400 -1,065 Descending Denver Center
Tue 12:05:32 PM 38.8350 -108.2589 299° West 254 292 12,300 -1,306 Descending Denver Center
Tue 12:06:34 PM 38.8861 -108.3331 312° West 250 288 10,700 -1,113 Descending Denver Center
Tue 12:07:36 PM 38.9311 -108.3917 315° West 233 268 10,000 -339 Descending Denver Center
Tue 12:08:38 PM 38.9772 -108.4506 315° West 232 267 10,000  Level Denver Center
Tue 12:09:40 PM 39.0275 -108.5153 315° West 235 270 10,000  Level Denver Center
Tue 12:10:42 PM 39.0769 -108.5803 314° West 252 290 10,000 -484 Level Denver Center
Tue 12:11:44 PM 39.1161 -108.6514 305° West 226 260 9,000 -484 Descending Denver Center
Tue 12:12:46 PM 39.1503 -108.7158 304° West 220 253 9,000  Level Denver Center
Tue 12:13:48 PM 39.1831 -108.7806 303° West 216 249 9,000  Level Denver Center
Tue 12:14:50 PM 39.2178 -108.8489 303° West 214 246 9,000 -726 Level Denver Center
Tue 12:15:52 PM 39.2736 -108.8419 North 233 268 7,500 -968 Descending Denver Center
Tue 12:16:54 PM 39.2550 -108.7642 107° East 227 261 7,000 -242 Descending Denver Center
Tue 12:17:56 PM 39.2194 -108.6992 125° Southeast 224 258 7,000 -145 Level Denver Center
Tue 12:18:58 PM 39.1856 -108.6389 314° West 198 228 6,700 -576 Descending Denver Center
Tue 12:20:01 PM 39.1617 -108.5939 124° Southeast 160 184 5,800 -864 Descending Denver Center
Tue 12:21:03 PM 39.1367 -108.5483 125° Southeast 147 169 4,900 -484 Descending Denver Center
Tue 12:22:05 PM 39.1144 -108.5069 125° Southeast 145 167 4,800 -97 Descending Denver Center
Tue 12:24:00 PM 30.1670 -95.4368 333° Northwest  Level FlightAware Approximate
Tue 12:31:00 PM 30.8408 -95.8086 335° Northwest  Level FlightAware Approximate
Tue 12:32:00 PM 30.9374 -95.8613 335° Northwest  Level FlightAware Approximate
Tue 12:33:00 PM 31.0340 -95.9140 335° Northwest  Level FlightAware Approximate
Tue 12:34:00 PM 31.1280 -95.9709 342° North  Level FlightAware Approximate
Tue 12:35:00 PM 31.2295 -96.0090 342° North  Level FlightAware Approximate
Tue 12:36:00 PM 31.3285 -96.0452 319° Northwest  Level FlightAware Approximate
Tue 12:37:00 PM 31.4286 -96.0866 342° North  Level FlightAware Approximate
Tue 12:38:00 PM 31.5300 -96.1256 342° North  Level FlightAware Approximate
Tue 12:39:00 PM 31.6329 -96.1572 339° North  Level FlightAware Approximate
Tue 12:40:00 PM 31.7327 -96.2016 339° North  Level FlightAware Approximate
Tue 12:41:00 PM 31.8340 -96.2404 343° North  Level FlightAware Approximate
Tue 12:42:00 PM 31.9362 -96.2764 343° North  Level FlightAware Approximate
Tue 12:43:00 PM 32.0384 -96.3126 343° North  Level FlightAware Approximate
Tue 12:44:00 PM 32.1370 -96.3602 337° Northwest  Level FlightAware Approximate
Tue 12:45:00 PM 32.2385 -96.3971 348° North  Level FlightAware Approximate
Tue 12:46:00 PM 32.3402 -96.4346 342° North  Level FlightAware Approximate
Tue 12:47:00 PM 32.4417 -96.4735 342° North  Level FlightAware Approximate
Tue 12:48:00 PM 32.5431 -96.5126 342° North  Level FlightAware Approximate
Tue 12:49:00 PM 32.6446 -96.5517 342° North  Level FlightAware Approximate
Tue 12:50:00 PM 32.7478 -96.5828 348° North  Level FlightAware Approximate
Tue 12:51:00 PM 32.8522 -96.6089 348° North  Level FlightAware Approximate
Tue 12:52:00 PM 32.9332 -96.6831 312° West  Level FlightAware Approximate
Tue 12:53:00 PM 32.9854 -96.7866 307° West  Level FlightAware Approximate
Tue 12:54:00 PM 33.0497 -96.8881 307° West  Level FlightAware Approximate
Tue 12:55:00 PM 33.1139 -96.9897 307° West  Level FlightAware Approximate
Tue 12:56:00 PM 33.1780 -97.0915 307° West  Level FlightAware Approximate
Tue 12:57:00 PM 33.2363 -97.1982 303° West  Level FlightAware Approximate
Tue 12:58:00 PM 33.2940 -97.3055 303° West  Level FlightAware Approximate
Tue 12:59:00 PM 33.3530 -97.4118 304° West  Level FlightAware Approximate
Tue 01:00:00 PM 33.4121 -97.5182 304° West  Level FlightAware Approximate
Tue 01:01:00 PM 33.4712 -97.6245 305° West  Level FlightAware Approximate
Tue 01:02:00 PM 33.5323 -97.7293 305° West  Level FlightAware Approximate
Tue 01:03:00 PM 33.5933 -97.8343 305° West  Level FlightAware Approximate
Tue 01:04:00 PM 33.6543 -97.9394 305° West  Level FlightAware Approximate
Tue 01:05:00 PM 33.7151 -98.0447 305° West  Level FlightAware Approximate
Tue 01:06:00 PM 33.7758 -98.1501 305° West  Level FlightAware Approximate
Tue 01:07:00 PM 33.8365 -98.2557 305° West  Level FlightAware Approximate
Tue 01:08:00 PM 33.8970 -98.3614 305° West  Level FlightAware Approximate
Tue 01:09:00 PM 33.9575 -98.4673 305° West  Level FlightAware Approximate
Tue 01:10:00 PM 34.0303 -98.5546 304° West  Level FlightAware Approximate
Tue 01:11:00 PM 34.0896 -98.6616 304° West  Level FlightAware Approximate
Tue 01:12:00 PM 34.1487 -98.7688 304° West  Level FlightAware Approximate
Tue 01:13:00 PM 34.2078 -98.8761 304° West  Level FlightAware Approximate
Tue 01:14:00 PM 34.2668 -98.9835 304° West  Level FlightAware Approximate
Tue 01:15:00 PM 34.3257 -99.0912 304° West  Level FlightAware Approximate
Tue 01:16:00 PM 34.3845 -99.1989 303° West  Level FlightAware Approximate
Tue 01:17:00 PM 34.4432 -99.3069 303° West  Level FlightAware Approximate
Tue 01:18:00 PM 34.5019 -99.4149 303° West  Level FlightAware Approximate
Tue 01:19:00 PM 34.5605 -99.5230 303° West  Level FlightAware Approximate
Tue 01:20:00 PM 34.6191 -99.6313 303° West  Level FlightAware Approximate
Tue 01:21:00 PM 34.6775 -99.7398 303° West  Level FlightAware Approximate
Tue 01:22:00 PM 34.7358 -99.8484 303° West  Level FlightAware Approximate
Tue 01:23:00 PM 34.7941 -99.9572 303° West  Level FlightAware Approximate
Tue 01:24:00 PM 34.8522 -100.0661 303° West  Level FlightAware Approximate
Tue 01:25:00 PM 34.9103 -100.1751 303° West  Level FlightAware Approximate
Tue 01:26:00 PM 34.9686 -100.2841 304° West  Level FlightAware Approximate
Tue 01:27:00 PM 35.0276 -100.3925 304° West  Level FlightAware Approximate
Tue 01:28:00 PM 35.0865 -100.5011 304° West  Level FlightAware Approximate
Tue 01:29:00 PM 35.1453 -100.6099 303° West  Level FlightAware Approximate
Tue 01:30:00 PM 35.2040 -100.7188 303° West  Level FlightAware Approximate
Tue 01:31:00 PM 35.2626 -100.8279 303° West  Level FlightAware Approximate
Tue 01:32:00 PM 35.3211 -100.9371 303° West  Level FlightAware Approximate
Tue 01:33:00 PM 35.3795 -101.0465 303° West  Level FlightAware Approximate
Tue 01:34:00 PM 35.4378 -101.1561 303° West  Level FlightAware Approximate
Tue 01:35:00 PM 35.4961 -101.2658 303° West  Level FlightAware Approximate
Tue 01:36:00 PM 35.5542 -101.3757 303° West  Level FlightAware Approximate
Tue 01:37:00 PM 35.6122 -101.4857 303° West  Level FlightAware Approximate
Tue 01:38:00 PM 35.6701 -101.5959 303° West  Level FlightAware Approximate
Tue 01:39:00 PM 35.7279 -101.7063 303° West  Level FlightAware Approximate
Tue 01:40:00 PM 35.7853 -101.8171 303° West  Level FlightAware Approximate
Tue 01:41:00 PM 35.8424 -101.9281 302° West  Level FlightAware Approximate
Tue 01:42:00 PM 35.8996 -102.0393 302° West  Level FlightAware Approximate
Tue 01:43:00 PM 35.9566 -102.1506 302° West  Level FlightAware Approximate
Tue 01:44:00 PM 36.0135 -102.2621 302° West  Level FlightAware Approximate
Tue 01:45:00 PM 36.0702 -102.3737 302° West  Level FlightAware Approximate
Tue 01:46:00 PM 36.1264 -102.4859 302° West  Level FlightAware Approximate
Tue 01:47:00 PM 36.1858 -102.5953 310° West  Level FlightAware Approximate
Tue 01:48:00 PM 36.2451 -102.7050 302° West  Level FlightAware Approximate
Tue 01:49:00 PM 36.3020 -102.8169 302° West  Level FlightAware Approximate
Tue 01:50:00 PM 36.3587 -102.9290 302° West  Level FlightAware Approximate
Tue 01:51:00 PM 36.4154 -103.0412 302° West  Level FlightAware Approximate
Tue 01:52:00 PM 36.4720 -103.1536 302° West  Level FlightAware Approximate
Tue 01:53:00 PM 36.5285 -103.2661 302° West  Level FlightAware Approximate
Tue 01:54:00 PM 36.5849 -103.3788 302° West  Level FlightAware Approximate
Tue 01:55:00 PM 36.6411 -103.4917 302° West  Level FlightAware Approximate
Tue 01:56:00 PM 36.6973 -103.6047 302° West  Level FlightAware Approximate
Tue 01:57:00 PM 36.7533 -103.7179 302° West  Level FlightAware Approximate
Tue 01:58:00 PM 36.8093 -103.8313 302° West  Level FlightAware Approximate
Tue 01:59:00 PM 36.8651 -103.9448 302° West  Level FlightAware Approximate
Tue 02:00:00 PM 36.9201 -104.0591 295° West  Level FlightAware Approximate
Tue 02:01:00 PM 36.9654 -104.1799 295° West  Level FlightAware Approximate
Tue 02:02:00 PM 37.0211 -104.2937 302° West  Level FlightAware Approximate
Tue 02:03:00 PM 37.0771 -104.4074 302° West  Level FlightAware Approximate
Tue 02:04:00 PM 37.1329 -104.5213 302° West  Level FlightAware Approximate
Tue 02:05:00 PM 37.1886 -104.6355 302° West  Level FlightAware Approximate
Tue 02:06:00 PM 37.2443 -104.7497 301° West  Level FlightAware Approximate
Tue 02:07:00 PM 37.2998 -104.8641 301° West  Level FlightAware Approximate
Tue 02:08:00 PM 37.3552 -104.9787 301° West  Level FlightAware Approximate
Tue 02:09:00 PM 37.4104 -105.0935 301° West  Level FlightAware Approximate
Tue 02:10:00 PM 37.4656 -105.2085 301° West  Level FlightAware Approximate
Tue 02:11:00 PM 37.5207 -105.3236 301° West  Level FlightAware Approximate
Tue 02:12:00 PM 37.5742 -105.4400 300° West  Level FlightAware Approximate
Tue 02:13:00 PM 37.6271 -105.5568 300° West  Level FlightAware Approximate
Tue 02:14:00 PM 37.6799 -105.6739 300° West  Level FlightAware Approximate
Tue 02:15:00 PM 37.7325 -105.7911 300° West  Level FlightAware Approximate
Tue 02:16:00 PM 37.7851 -105.9085 300° West  Level FlightAware Approximate
Tue 02:17:00 PM 37.8375 -106.0260 299° West  Level FlightAware Approximate
Tue 02:18:00 PM 37.8898 -106.1438 299° West  Level FlightAware Approximate
Tue 02:19:00 PM 37.9429 -106.2610 300° West  Level FlightAware Approximate
Tue 02:20:00 PM 37.9971 -106.3775 302° West  Level FlightAware Approximate
Tue 02:21:00 PM 38.0503 -106.4948 300° West  Level FlightAware Approximate
Tue 02:22:00 PM 38.1033 -106.6125 300° West  Level FlightAware Approximate
Tue 02:23:00 PM 38.1561 -106.7303 300° West  Level FlightAware Approximate
Tue 02:24:00 PM 38.2088 -106.8482 300° West  Level FlightAware Approximate
Tue 02:25:00 PM 38.2613 -106.9664 300° West  Level FlightAware Approximate
Tue 02:26:00 PM 38.3138 -107.0847 299° West  Level FlightAware Approximate
Tue 02:27:00 PM 38.3700 -107.1999 307° West  Level FlightAware Approximate
Tue 02:28:00 PM 38.4174 -107.3184 299° West  Level FlightAware Approximate
Tue 02:29:00 PM 38.4699 -107.4365 322° Northwest  Level FlightAware Approximate
Tue 02:30:00 PM 38.5271 -107.5498 299° West  Level FlightAware Approximate
Tue 02:31:00 PM 38.5792 -107.6689 299° West  Level FlightAware Approximate
Tue 02:32:00 PM 38.6291 -107.7894 297° West  Level FlightAware Approximate
Tue 02:33:00 PM 38.6797 -107.9097 298° West  Level FlightAware Approximate
Tue 02:34:00 PM 38.7303 -108.0299 298° West  Level FlightAware Approximate
Tue 02:35:00 PM 38.7828 -108.1489 303° West  Level FlightAware Approximate
Tue 02:36:00 PM 38.8340 -108.2685 293° West  Level FlightAware Approximate
Tue 02:37:00 PM 38.8843 -108.3888 300° West  Level FlightAware Approximate

Login

Don't have an account? Register now (free) for customized features, flight alerts, and more!